createdAt,value
2023-04-11T00:00:00.124Z,29.77
2023-04-11T00:02:28.462Z,30.15
2023-04-11T00:04:57.387Z,30.33
2023-04-11T00:07:24.235Z,30.40
2023-04-11T00:09:51.342Z,28.95
2023-04-11T00:12:18.255Z,26.45
2023-04-11T00:14:49.030Z,27.48
2023-04-11T00:17:17.709Z,26.63
2023-04-11T00:19:46.236Z,25.25
2023-04-11T00:22:17.979Z,24.10
2023-04-11T00:24:45.627Z,24.40
2023-04-11T00:27:12.711Z,24.02
2023-04-11T00:29:39.682Z,23.95
2023-04-11T00:32:06.597Z,24.45
2023-04-11T00:34:36.738Z,23.40
2023-04-11T00:37:03.667Z,25.15
2023-04-11T00:39:34.230Z,23.42
2023-04-11T00:44:32.893Z,21.55
2023-04-11T00:47:02.252Z,22.63
2023-04-11T00:49:32.145Z,22.05
2023-04-11T00:52:00.495Z,22.38
2023-04-11T00:54:32.259Z,22.48
2023-04-11T00:57:04.220Z,21.83
2023-04-11T00:59:32.640Z,20.65
2023-04-11T01:02:02.112Z,20.70
2023-04-11T01:04:32.920Z,21.20
2023-04-11T01:07:06.371Z,21.60
2023-04-11T01:09:35.467Z,21.10
2023-04-11T01:12:04.971Z,22.52
2023-04-11T01:14:32.034Z,22.88
2023-04-11T01:17:02.303Z,22.80
2023-04-11T01:21:58.166Z,21.33
2023-04-11T01:24:25.304Z,21.55
2023-04-11T01:26:52.281Z,22.77
2023-04-11T01:29:19.202Z,22.08
2023-04-11T01:31:46.529Z,21.58
2023-04-11T01:34:14.953Z,21.65
2023-04-11T01:36:42.781Z,21.52
2023-04-11T01:39:10.053Z,24.20
2023-04-11T01:41:37.499Z,24.70
2023-04-11T01:44:04.723Z,25.45
2023-04-11T01:46:34.150Z,23.23
2023-04-11T01:49:01.622Z,25.63
2023-04-11T01:51:28.769Z,25.17
2023-04-11T01:53:56.636Z,23.83
2023-04-11T01:56:23.605Z,23.08
2023-04-11T01:58:50.655Z,23.30
2023-04-11T02:01:19.209Z,23.75
2023-04-11T02:03:46.717Z,24.23
2023-04-11T02:06:15.560Z,24.73
2023-04-11T02:08:44.113Z,24.48
2023-04-11T02:11:12.458Z,25.23
2023-04-11T02:13:39.568Z,25.88
2023-04-11T02:16:08.377Z,26.15
2023-04-11T02:18:38.201Z,25.88
2023-04-11T02:21:05.982Z,24.38
2023-04-11T02:23:32.975Z,24.52
2023-04-11T02:26:00.997Z,23.17
2023-04-11T02:28:28.798Z,23.58
2023-04-11T02:30:57.063Z,23.65
2023-04-11T02:33:24.211Z,22.92
2023-04-11T02:35:51.101Z,23.80
2023-04-11T02:38:17.929Z,22.27
2023-04-11T02:40:44.703Z,22.52
2023-04-11T02:43:12.071Z,23.15
2023-04-11T02:45:44.504Z,21.35
2023-04-11T02:48:11.345Z,23.58
2023-04-11T02:50:40.980Z,21.30
2023-04-11T02:53:08.173Z,20.67
2023-04-11T02:55:44.005Z,20.27
2023-04-11T02:58:18.190Z,20.90
2023-04-11T03:00:45.741Z,21.70
2023-04-11T03:03:15.904Z,21.52
2023-04-11T03:05:42.835Z,20.80
2023-04-11T03:08:09.599Z,20.15
2023-04-11T03:10:36.639Z,19.77
2023-04-11T03:13:03.870Z,20.33
2023-04-11T03:15:32.356Z,19.33
2023-04-11T03:17:59.317Z,19.63
2023-04-11T03:20:27.669Z,20.05
2023-04-11T03:22:54.623Z,18.08
2023-04-11T03:25:21.532Z,18.25
2023-04-11T03:27:48.855Z,19.95
2023-04-11T03:30:16.998Z,19.65
2023-04-11T03:32:44.902Z,19.23
2023-04-11T03:35:14.887Z,19.23
2023-04-11T03:37:42.889Z,17.88
2023-04-11T03:40:11.769Z,17.73
2023-04-11T03:42:39.246Z,17.80
2023-04-11T03:45:08.281Z,17.40
2023-04-11T03:47:35.394Z,17.75
2023-04-11T03:50:02.232Z,17.67
2023-04-11T03:52:29.164Z,17.73
2023-04-11T03:54:55.968Z,17.85
2023-04-11T03:57:22.713Z,18.48
2023-04-11T03:59:49.719Z,17.75
2023-04-11T04:02:17.125Z,18.08
2023-04-11T04:04:47.232Z,17.67
2023-04-11T04:07:14.928Z,17.77
2023-04-11T04:09:43.197Z,17.92
2023-04-11T04:12:10.268Z,17.58
2023-04-11T04:14:38.440Z,19.50
2023-04-11T04:17:07.748Z,18.73
2023-04-11T04:19:34.528Z,19.00
2023-04-11T04:22:01.476Z,20.52
2023-04-11T04:24:29.539Z,20.67
2023-04-11T04:27:01.024Z,22.17
2023-04-11T04:29:39.826Z,26.30
2023-04-11T04:32:22.347Z,26.95
2023-04-11T04:34:56.376Z,25.35
2023-04-11T04:37:25.290Z,25.65
2023-04-11T04:39:56.761Z,23.85
2023-04-11T04:42:28.910Z,25.15
2023-04-11T04:44:57.386Z,23.77
2023-04-11T04:47:26.233Z,23.58
2023-04-11T04:49:56.557Z,23.38
2023-04-11T04:52:27.772Z,23.25
2023-04-11T04:55:01.410Z,21.95
2023-04-11T04:57:30.170Z,23.85
2023-04-11T04:59:58.821Z,22.55
2023-04-11T05:02:26.813Z,23.63
2023-04-11T05:04:57.410Z,23.55
2023-04-11T05:07:24.190Z,24.45
2023-04-11T05:09:51.417Z,22.75
2023-04-11T05:12:20.350Z,22.23
2023-04-11T05:14:47.915Z,20.85
2023-04-11T05:17:14.956Z,22.80
2023-04-11T05:19:41.817Z,20.85
2023-04-11T05:22:11.023Z,19.13
2023-04-11T05:24:38.796Z,21.27
2023-04-11T05:27:06.231Z,21.95
2023-04-11T05:29:32.983Z,21.98
2023-04-11T05:31:59.731Z,22.55
2023-04-11T05:34:31.402Z,26.83
2023-04-11T05:36:58.378Z,24.85
2023-04-11T05:39:25.142Z,22.52
2023-04-11T05:41:52.056Z,20.48
2023-04-11T05:44:18.834Z,19.48
2023-04-11T05:54:37.604Z,20.30
2023-04-11T05:57:13.302Z,20.00
2023-04-11T06:00:28.604Z,22.88
2023-04-11T06:04:58.545Z,17.70
2023-04-11T06:06:52.606Z,12.25
2023-04-11T06:09:19.849Z,12.00
2023-04-11T06:11:46.715Z,11.65
2023-04-11T06:14:13.466Z,11.52
2023-04-11T06:16:40.245Z,12.02
2023-04-11T06:19:07.049Z,10.80
2023-04-11T06:21:34.269Z,13.00
2023-04-11T06:24:11.276Z,10.75
2023-04-11T06:26:38.132Z,11.63
2023-04-11T06:29:06.550Z,12.23
2023-04-11T06:31:33.930Z,10.90
2023-04-11T06:34:01.627Z,10.18
2023-04-11T06:36:30.207Z,10.77
2023-04-11T06:38:58.420Z,9.15
2023-04-11T06:41:25.403Z,8.88
2023-04-11T06:43:52.190Z,8.85
2023-04-11T06:46:19.290Z,9.30
2023-04-11T06:48:46.160Z,8.98
2023-04-11T06:51:16.688Z,8.48
2023-04-11T06:53:43.941Z,8.07
2023-04-11T06:56:11.047Z,8.93
2023-04-11T06:58:37.937Z,7.95
2023-04-11T07:01:04.773Z,7.50
2023-04-11T07:03:32.673Z,7.40
2023-04-11T07:05:59.915Z,7.25
2023-04-11T07:08:26.970Z,7.75
2023-04-11T07:10:53.716Z,6.53
2023-04-11T07:13:21.555Z,7.60
2023-04-11T07:15:48.685Z,7.20
2023-04-11T07:18:15.512Z,5.97
2023-04-11T07:20:42.510Z,4.22
2023-04-11T07:23:09.524Z,5.35
2023-04-11T07:25:37.000Z,5.22
2023-04-11T07:28:07.628Z,4.80
2023-04-11T07:30:40.477Z,4.70
2023-04-11T07:33:08.604Z,4.95
2023-04-11T07:35:35.671Z,4.13
2023-04-11T07:38:02.499Z,4.90
2023-04-11T07:40:29.292Z,4.50
2023-04-11T07:42:56.147Z,4.05
2023-04-11T07:45:24.482Z,4.20
2023-04-11T07:47:52.894Z,4.18
2023-04-11T07:50:19.927Z,4.95
2023-04-11T07:52:48.826Z,4.78
2023-04-11T07:55:15.649Z,5.05
2023-04-11T07:57:42.544Z,4.68
2023-04-11T08:00:18.704Z,4.80
2023-04-11T08:02:45.605Z,5.18
2023-04-11T08:05:12.512Z,5.60
2023-04-11T08:07:39.295Z,5.32
2023-04-11T08:10:07.252Z,5.78
2023-04-11T08:12:34.104Z,5.88
2023-04-11T08:15:00.904Z,6.40
2023-04-11T08:17:29.322Z,6.50
2023-04-11T08:19:57.596Z,6.25
2023-04-11T08:22:26.805Z,6.55
2023-04-11T08:24:55.005Z,6.05
2023-04-11T08:27:21.824Z,6.22
2023-04-11T08:29:48.528Z,5.78
2023-04-11T08:32:15.472Z,5.70
2023-04-11T08:34:42.310Z,6.30
2023-04-11T08:37:09.211Z,6.00
2023-04-11T08:39:36.140Z,6.65
2023-04-11T08:42:03.894Z,5.80
2023-04-11T08:44:31.866Z,6.43
2023-04-11T08:46:59.545Z,5.93
2023-04-11T08:49:26.389Z,6.10
2023-04-11T08:52:18.730Z,5.53
2023-04-11T08:54:53.766Z,5.22
2023-04-11T08:57:28.103Z,5.75
2023-04-11T08:59:56.235Z,5.60
2023-04-11T09:02:23.289Z,5.80
2023-04-11T09:04:50.162Z,5.63
2023-04-11T09:07:20.117Z,5.70
2023-04-11T09:09:46.896Z,5.90
2023-04-11T09:12:13.966Z,6.03
2023-04-11T09:14:42.101Z,6.13
2023-04-11T09:17:29.612Z,5.25
2023-04-11T09:20:18.904Z,5.57
2023-04-11T09:22:48.077Z,5.68
2023-04-11T09:25:14.887Z,6.10
2023-04-11T09:27:41.718Z,6.38
2023-04-11T09:30:22.843Z,5.80
2023-04-11T09:32:53.316Z,6.30
2023-04-11T09:35:25.518Z,6.05
2023-04-11T09:37:57.340Z,5.65
2023-04-11T09:40:31.427Z,5.95
2023-04-11T09:43:00.521Z,6.10
2023-04-11T09:45:28.653Z,5.78
2023-04-11T09:47:58.284Z,6.35
2023-04-11T09:50:26.711Z,6.10
2023-04-11T09:52:56.485Z,6.43
2023-04-11T09:55:26.033Z,6.25
2023-04-11T09:57:54.686Z,6.25
2023-04-11T10:00:24.335Z,6.55
2023-04-11T10:02:53.606Z,6.45
2023-04-11T10:05:26.031Z,6.80
2023-04-11T10:08:12.879Z,6.55
2023-04-11T10:10:43.699Z,5.78
2023-04-11T10:13:35.723Z,7.13
2023-04-11T10:16:10.368Z,6.32
2023-04-11T10:18:39.003Z,6.22
2023-04-11T10:21:28.869Z,6.88
2023-04-11T10:24:28.145Z,6.65
2023-04-11T10:27:05.620Z,6.32
2023-04-11T10:29:40.480Z,6.78
2023-04-11T10:32:11.641Z,6.88
2023-04-11T10:34:40.855Z,6.95
2023-04-11T10:37:10.834Z,5.82
2023-04-11T10:40:00.702Z,5.72
2023-04-11T10:42:34.035Z,6.40
2023-04-11T10:45:26.587Z,6.15
2023-04-11T10:47:58.488Z,6.18
2023-04-11T10:50:30.251Z,5.70
2023-04-11T10:53:03.106Z,6.20
2023-04-11T10:55:33.000Z,6.78
2023-04-11T10:58:09.622Z,5.50
2023-04-11T11:00:51.664Z,5.75
2023-04-11T11:03:30.527Z,6.20
2023-04-11T11:05:59.572Z,6.97
2023-04-11T11:08:30.899Z,6.80
2023-04-11T11:11:02.400Z,6.88
2023-04-11T11:13:53.079Z,6.45
2023-04-11T11:16:22.302Z,6.55
2023-04-11T11:18:53.595Z,6.90
2023-04-11T11:21:28.173Z,7.07
2023-04-11T11:24:01.031Z,7.75
2023-04-11T11:26:44.708Z,7.05
2023-04-11T11:29:12.337Z,7.05
2023-04-11T11:31:41.868Z,7.22
2023-04-11T11:34:22.745Z,7.40
2023-04-11T11:36:50.675Z,7.30
2023-04-11T11:39:17.785Z,7.75
2023-04-11T11:41:44.772Z,7.63
2023-04-11T11:44:29.487Z,8.02
2023-04-11T11:47:04.250Z,7.65
2023-04-11T11:49:46.651Z,6.55
2023-04-11T11:52:31.792Z,7.18
2023-04-11T11:54:58.693Z,7.03
2023-04-11T11:57:25.939Z,7.13
2023-04-11T11:59:54.457Z,7.00
2023-04-11T12:02:23.566Z,6.78
2023-04-11T12:04:50.707Z,6.65
2023-04-11T12:07:22.812Z,6.53
2023-04-11T12:09:50.124Z,6.80
2023-04-11T12:12:19.532Z,7.93
2023-04-11T12:14:53.929Z,6.87
2023-04-11T12:17:20.907Z,7.00
2023-04-11T12:19:48.068Z,6.20
2023-04-11T12:22:15.588Z,6.45
2023-04-11T12:24:42.333Z,6.55
2023-04-11T12:27:10.138Z,6.03
2023-04-11T12:29:37.487Z,6.05
2023-04-11T12:32:04.415Z,5.95
2023-04-11T12:34:31.115Z,5.53
2023-04-11T12:36:58.095Z,6.13
2023-04-11T12:39:24.926Z,6.50
2023-04-11T12:41:52.899Z,6.22
2023-04-11T12:44:19.725Z,7.07
2023-04-11T12:46:46.459Z,6.45
2023-04-11T12:49:13.270Z,6.25
2023-04-11T12:51:39.974Z,6.40
2023-04-11T12:54:06.794Z,6.45
2023-04-11T12:56:34.080Z,5.88
2023-04-11T12:59:00.963Z,6.30
2023-04-11T13:01:32.146Z,7.43
2023-04-11T13:03:59.142Z,6.53
2023-04-11T13:06:26.104Z,6.50
2023-04-11T13:08:52.956Z,6.18
2023-04-11T13:11:19.859Z,6.00
2023-04-11T13:13:46.882Z,6.28
2023-04-11T13:16:13.688Z,6.72
2023-04-11T13:18:40.968Z,6.60
2023-04-11T13:21:08.470Z,5.30
2023-04-11T13:23:35.810Z,6.40
2023-04-11T13:26:02.927Z,5.90
2023-04-11T13:28:29.921Z,6.10
2023-04-11T13:30:56.656Z,6.45
2023-04-11T13:33:23.330Z,7.45
2023-04-11T13:35:50.262Z,6.95
2023-04-11T13:38:16.940Z,6.90
2023-04-11T13:40:43.709Z,6.85
2023-04-11T13:43:10.899Z,6.50
2023-04-11T13:45:37.743Z,5.68
2023-04-11T13:48:04.884Z,6.15
2023-04-11T13:50:33.799Z,6.45
2023-04-11T13:53:01.217Z,6.07
2023-04-11T13:55:28.082Z,6.53
2023-04-11T13:57:54.798Z,5.55
2023-04-11T14:00:22.004Z,5.95
2023-04-11T14:02:51.151Z,7.10
2023-04-11T14:05:19.364Z,6.70
2023-04-11T14:07:46.126Z,6.05
2023-04-11T14:10:12.958Z,6.68
2023-04-11T14:12:39.741Z,6.07
2023-04-11T14:15:07.867Z,5.90
2023-04-11T14:17:34.616Z,5.82
2023-04-11T14:20:01.363Z,6.40
2023-04-11T14:22:28.088Z,5.80
2023-04-11T14:24:54.820Z,5.57
2023-04-11T14:27:21.555Z,5.60
2023-04-11T14:29:48.351Z,6.60
2023-04-11T14:32:15.226Z,6.38
2023-04-11T14:34:41.973Z,6.00
2023-04-11T14:37:08.763Z,6.55
2023-04-11T14:39:35.601Z,6.30
2023-04-11T14:42:02.639Z,6.00
2023-04-11T14:44:29.784Z,6.18
2023-04-11T14:46:56.701Z,5.32
2023-04-11T14:49:23.454Z,5.40
2023-04-11T14:51:50.282Z,5.32
2023-04-11T14:54:17.102Z,6.25
2023-04-11T14:56:44.041Z,5.20
2023-04-11T14:59:11.420Z,5.90
2023-04-11T15:01:38.956Z,5.13
2023-04-11T15:04:06.070Z,5.85
2023-04-11T15:06:33.333Z,5.95
2023-04-11T15:09:00.108Z,5.88
2023-04-11T15:11:27.468Z,4.50
2023-04-11T15:13:54.991Z,4.72
2023-04-11T15:16:22.183Z,4.65
2023-04-11T15:18:49.985Z,5.47
2023-04-11T15:21:16.849Z,6.28
2023-04-11T15:23:44.995Z,6.47
2023-04-11T15:26:11.830Z,6.82
2023-04-11T15:28:39.433Z,5.55
2023-04-11T15:31:09.007Z,5.80
2023-04-11T15:33:36.688Z,5.70
2023-04-11T15:36:04.759Z,6.00
2023-04-11T15:38:31.591Z,6.75
2023-04-11T15:40:59.831Z,6.28
2023-04-11T15:43:27.462Z,7.22
2023-04-11T15:45:54.816Z,6.97
2023-04-11T15:48:21.592Z,6.93
2023-04-11T15:50:48.631Z,7.25
2023-04-11T15:53:15.450Z,6.85
2023-04-11T15:55:43.337Z,7.05
2023-04-11T15:58:16.904Z,7.05
2023-04-11T16:00:47.984Z,7.50
2023-04-11T16:03:16.506Z,7.18
2023-04-11T16:05:44.173Z,7.22
2023-04-11T16:08:10.958Z,7.35
2023-04-11T16:10:37.748Z,7.40
2023-04-11T16:13:04.597Z,7.65
2023-04-11T16:15:32.044Z,6.45
2023-04-11T16:17:58.879Z,7.88
2023-04-11T16:20:25.684Z,7.05
2023-04-11T16:22:52.432Z,6.63
2023-04-11T16:25:21.221Z,6.15
2023-04-11T16:27:49.888Z,6.43
2023-04-11T16:30:17.228Z,7.72
2023-04-11T16:32:44.189Z,7.28
2023-04-11T16:35:11.244Z,7.70
2023-04-11T16:37:38.002Z,7.75
2023-04-11T16:40:10.990Z,7.45
2023-04-11T16:42:38.495Z,7.00
2023-04-11T16:45:06.524Z,7.18
2023-04-11T16:47:33.493Z,7.90
2023-04-11T16:50:00.203Z,7.78
2023-04-11T16:52:26.978Z,7.60
2023-04-11T16:54:53.830Z,7.82
2023-04-11T16:57:20.713Z,8.63
2023-04-11T16:59:47.468Z,9.07
2023-04-11T17:02:14.337Z,8.80
2023-04-11T17:04:41.371Z,8.35
2023-04-11T17:07:09.445Z,10.30
2023-04-11T17:09:36.187Z,8.95
2023-04-11T17:12:03.295Z,11.40
2023-04-11T17:14:30.970Z,14.45
2023-04-11T17:16:57.808Z,20.95
2023-04-11T17:19:25.220Z,18.40
2023-04-11T17:21:52.400Z,12.82
2023-04-11T17:24:19.214Z,14.30
2023-04-11T17:26:46.410Z,16.63
2023-04-11T17:29:13.413Z,19.77
2023-04-11T17:31:40.282Z,20.45
2023-04-11T17:34:07.130Z,19.55
2023-04-11T17:36:33.906Z,17.27
2023-04-11T17:39:01.027Z,16.50
2023-04-11T17:41:27.769Z,15.57
2023-04-11T17:43:56.565Z,13.93
2023-04-11T17:46:23.470Z,14.68
2023-04-11T17:48:50.190Z,14.75
2023-04-11T17:51:16.903Z,13.50
2023-04-11T17:53:43.654Z,14.88
2023-04-11T17:56:10.333Z,14.65
2023-04-11T17:58:38.112Z,15.80
2023-04-11T18:01:09.419Z,17.33
2023-04-11T18:03:36.277Z,19.73
2023-04-11T18:06:03.345Z,21.63
2023-04-11T18:08:42.388Z,25.67
2023-04-11T18:11:16.336Z,44.28
2023-04-11T18:13:43.838Z,55.25
2023-04-11T18:16:11.307Z,43.97
2023-04-11T18:18:38.239Z,41.95
2023-04-11T18:21:07.300Z,48.30
2023-04-11T18:23:35.197Z,44.25
2023-04-11T18:26:01.937Z,43.97
2023-04-11T18:28:29.047Z,40.78
2023-04-11T18:30:56.282Z,36.72
2023-04-11T18:33:23.101Z,32.83
2023-04-11T18:35:49.899Z,31.45
2023-04-11T18:38:16.888Z,30.40
2023-04-11T18:40:43.791Z,30.50
2023-04-11T18:43:10.711Z,29.00
2023-04-11T18:45:38.434Z,28.65
2023-04-11T18:48:06.516Z,29.23
2023-04-11T18:50:38.514Z,28.92
2023-04-11T18:53:08.839Z,27.58
2023-04-11T18:55:36.649Z,29.13
2023-04-11T18:58:05.629Z,29.90
2023-04-11T19:00:34.526Z,28.42
2023-04-11T19:03:01.746Z,30.75
2023-04-11T19:05:29.408Z,34.30
2023-04-11T19:07:56.265Z,34.33
2023-04-11T19:10:23.131Z,34.67
2023-04-11T19:12:49.826Z,33.72
2023-04-11T19:15:16.537Z,32.88
2023-04-11T19:17:43.342Z,32.25
2023-04-11T19:20:12.634Z,32.40
2023-04-11T19:22:40.858Z,33.58
2023-04-11T19:25:10.955Z,25.27
2023-04-11T19:27:40.287Z,21.63
2023-04-11T19:30:13.362Z,15.60
2023-04-11T19:32:43.249Z,13.75
2023-04-11T19:35:11.510Z,12.50
2023-04-11T19:37:39.060Z,13.25
2023-04-11T19:40:07.694Z,12.45
2023-04-11T19:42:37.111Z,12.27
2023-04-11T19:45:04.960Z,9.80
2023-04-11T19:47:32.082Z,10.13
2023-04-11T19:50:00.671Z,9.15
2023-04-11T19:52:28.054Z,10.13
2023-04-11T19:54:56.352Z,9.63
2023-04-11T19:57:25.539Z,10.43
2023-04-11T19:59:52.290Z,8.43
2023-04-11T20:02:19.169Z,8.35
2023-04-11T20:04:46.207Z,8.38
2023-04-11T20:07:12.992Z,8.55
2023-04-11T20:09:39.693Z,7.72
2023-04-11T20:12:06.700Z,7.25
2023-04-11T20:14:33.828Z,7.43
2023-04-11T20:17:00.838Z,7.90
2023-04-11T20:19:29.772Z,8.98
2023-04-11T20:21:56.652Z,9.63
2023-04-11T20:24:23.972Z,8.90
2023-04-11T20:26:51.304Z,8.80
2023-04-11T20:29:18.389Z,8.73
2023-04-11T20:31:45.305Z,8.38
2023-04-11T20:34:12.068Z,7.43
2023-04-11T20:36:39.071Z,7.85
2023-04-11T20:39:06.267Z,7.50
2023-04-11T20:41:33.017Z,8.68
2023-04-11T20:43:59.824Z,7.65
2023-04-11T20:46:29.810Z,7.65
2023-04-11T20:48:56.911Z,8.52
2023-04-11T20:51:24.925Z,8.10
2023-04-11T20:53:51.713Z,7.90
2023-04-11T20:56:18.604Z,8.80
2023-04-11T20:58:46.465Z,9.38
2023-04-11T21:01:13.558Z,8.05
2023-04-11T21:03:43.830Z,8.05
2023-04-11T21:06:10.848Z,6.30
2023-04-11T21:08:37.881Z,7.50
2023-04-11T21:11:05.581Z,6.63
2023-04-11T21:13:32.411Z,6.90
2023-04-11T21:15:59.188Z,6.03
2023-04-11T21:18:25.980Z,6.72
2023-04-11T21:20:52.739Z,6.03
2023-04-11T21:23:19.585Z,6.40
2023-04-11T21:25:46.627Z,6.00
2023-04-11T21:28:13.370Z,4.30
2023-04-11T21:30:40.224Z,4.63
2023-04-11T21:33:07.030Z,4.20
2023-04-11T21:35:33.945Z,3.78
2023-04-11T21:38:00.834Z,3.80
2023-04-11T21:40:27.661Z,3.05
2023-04-11T21:42:55.536Z,2.67
2023-04-11T21:45:23.183Z,2.60
2023-04-11T21:47:51.152Z,2.47
2023-04-11T21:50:18.178Z,2.60
2023-04-11T21:52:46.283Z,2.35
2023-04-11T21:55:14.624Z,2.80
2023-04-11T21:57:41.846Z,3.33
2023-04-11T22:00:11.086Z,3.15
2023-04-11T22:17:09.094Z,2.80
2023-04-11T22:19:38.739Z,2.50
2023-04-11T22:27:41.880Z,2.60
2023-04-11T22:30:09.167Z,1.63
2023-04-11T22:32:44.427Z,2.13
2023-04-11T22:37:57.358Z,2.03
2023-04-11T22:40:24.536Z,2.67
2023-04-11T22:42:52.063Z,3.53
2023-04-11T22:48:11.051Z,3.28
2023-04-11T22:51:06.908Z,2.83
2023-04-11T22:53:51.638Z,3.00
2023-04-11T22:56:44.022Z,2.67
2023-04-11T22:59:43.014Z,2.45
2023-04-11T23:02:24.892Z,2.30
2023-04-11T23:05:11.411Z,1.90
2023-04-11T23:07:38.331Z,2.20
2023-04-11T23:10:09.018Z,2.20
2023-04-11T23:12:35.732Z,2.22
2023-04-11T23:15:03.306Z,2.00
2023-04-11T23:17:30.027Z,2.30
2023-04-11T23:19:59.617Z,1.90
2023-04-11T23:22:26.749Z,1.80
2023-04-11T23:24:53.807Z,1.88
2023-04-11T23:27:21.259Z,1.05
2023-04-11T23:29:52.680Z,1.30
2023-04-11T23:32:20.082Z,0.88
2023-04-11T23:34:46.890Z,1.20
2023-04-11T23:37:13.967Z,1.00
2023-04-11T23:39:41.053Z,1.42
2023-04-11T23:42:08.107Z,1.23
2023-04-11T23:44:34.991Z,1.40
2023-04-11T23:47:01.801Z,1.17
2023-04-11T23:49:28.666Z,1.90
2023-04-11T23:51:55.627Z,1.13
2023-04-11T23:54:22.316Z,1.70
2023-04-11T23:56:49.067Z,1.35
2023-04-11T23:59:16.259Z,1.48
